sensor_id;sensor_type;location;lat;lon;timestamp;pressure;altitude;pressure_sealevel;temperature;humidity
71384;BME280;67558;52.166;5.004;2023-09-18T00:00:49;100711.78;;;19.09;89.73
71384;BME280;67558;52.166;5.004;2023-09-18T00:03:16;100696.28;;;19.10;89.91
71384;BME280;67558;52.166;5.004;2023-09-18T00:05:44;100680.84;;;19.10;89.78
71384;BME280;67558;52.166;5.004;2023-09-18T00:08:10;100686.06;;;19.15;89.91
71384;BME280;67558;52.166;5.004;2023-09-18T00:10:35;100670.91;;;19.14;89.66
71384;BME280;67558;52.166;5.004;2023-09-18T00:13:01;100678.41;;;19.17;89.65
71384;BME280;67558;52.166;5.004;2023-09-18T00:15:26;100670.47;;;19.03;90.18
71384;BME280;67558;52.166;5.004;2023-09-18T00:17:52;100661.41;;;19.08;90.41
71384;BME280;67558;52.166;5.004;2023-09-18T00:20:17;100658.34;;;19.10;90.58
71384;BME280;67558;52.166;5.004;2023-09-18T00:22:44;100652.13;;;19.09;90.57
71384;BME280;67558;52.166;5.004;2023-09-18T00:25:10;100652.13;;;19.09;90.46
71384;BME280;67558;52.166;5.004;2023-09-18T00:27:35;100650.34;;;19.13;90.70
71384;BME280;67558;52.166;5.004;2023-09-18T00:30:02;100645.72;;;19.14;90.43
71384;BME280;67558;52.166;5.004;2023-09-18T00:32:28;100633.78;;;19.15;90.46
71384;BME280;67558;52.166;5.004;2023-09-18T00:34:53;100636.03;;;19.13;90.27
71384;BME280;67558;52.166;5.004;2023-09-18T00:37:19;100636.03;;;19.13;90.42
71384;BME280;67558;52.166;5.004;2023-09-18T00:39:44;100627.88;;;19.13;90.55
71384;BME280;67558;52.166;5.004;2023-09-18T00:42:10;100627.53;;;19.14;90.42
71384;BME280;67558;52.166;5.004;2023-09-18T00:44:39;100626.75;;;19.14;90.23
71384;BME280;67558;52.166;5.004;2023-09-18T00:47:07;100614.44;;;19.16;90.03
71384;BME280;67558;52.166;5.004;2023-09-18T00:49:33;100610.47;;;19.14;89.81
71384;BME280;67558;52.166;5.004;2023-09-18T00:51:59;100599.63;;;19.14;89.99
71384;BME280;67558;52.166;5.004;2023-09-18T00:54:25;100593.44;;;19.13;90.00
71384;BME280;67558;52.166;5.004;2023-09-18T00:56:51;100589.94;;;19.13;89.91
71384;BME280;67558;52.166;5.004;2023-09-18T00:59:20;100578.63;;;19.11;89.97
71384;BME280;67558;52.166;5.004;2023-09-18T01:01:46;100566.53;;;19.08;90.01
71384;BME280;67558;52.166;5.004;2023-09-18T01:04:13;100562.47;;;19.14;89.96
71384;BME280;67558;52.166;5.004;2023-09-18T01:06:38;100559.75;;;19.14;89.90
71384;BME280;67558;52.166;5.004;2023-09-18T01:09:04;100550.53;;;19.15;89.78
71384;BME280;67558;52.166;5.004;2023-09-18T01:11:44;100532.66;;;19.14;89.97
71384;BME280;67558;52.166;5.004;2023-09-18T01:14:21;100534.56;;;19.14;90.23
71384;BME280;67558;52.166;5.004;2023-09-18T01:16:53;100529.16;;;19.14;90.08
71384;BME280;67558;52.166;5.004;2023-09-18T01:19:37;100531.53;;;19.15;90.18
71384;BME280;67558;52.166;5.004;2023-09-18T01:22:08;100515.28;;;19.15;89.95
71384;BME280;67558;52.166;5.004;2023-09-18T01:24:34;100532.00;;;19.17;89.89
71384;BME280;67558;52.166;5.004;2023-09-18T01:27:00;100517.19;;;19.15;89.80
71384;BME280;67558;52.166;5.004;2023-09-18T01:29:25;100509.13;;;19.06;90.22
71384;BME280;67558;52.166;5.004;2023-09-18T01:31:51;100512.47;;;19.03;90.31
71384;BME280;67558;52.166;5.004;2023-09-18T01:34:22;100510.91;;;19.02;90.62
71384;BME280;67558;52.166;5.004;2023-09-18T01:36:51;100517.59;;;19.05;90.29
71384;BME280;67558;52.166;5.004;2023-09-18T01:39:18;100524.56;;;19.06;90.18
71384;BME280;67558;52.166;5.004;2023-09-18T01:41:45;100525.72;;;19.05;90.15
71384;BME280;67558;52.166;5.004;2023-09-18T01:44:11;100519.50;;;19.04;90.03
71384;BME280;67558;52.166;5.004;2023-09-18T01:46:36;100514.09;;;19.04;89.95
71384;BME280;67558;52.166;5.004;2023-09-18T01:49:03;100497.16;;;19.07;90.00
71384;BME280;67558;52.166;5.004;2023-09-18T01:51:29;100489.34;;;19.06;90.49
71384;BME280;67558;52.166;5.004;2023-09-18T01:53:55;100477.72;;;19.05;90.39
71384;BME280;67558;52.166;5.004;2023-09-18T01:56:20;100489.00;;;19.07;90.12
71384;BME280;67558;52.166;5.004;2023-09-18T01:58:46;100484.06;;;19.09;90.07
71384;BME280;67558;52.166;5.004;2023-09-18T02:01:11;100492.25;;;19.00;90.60
71384;BME280;67558;52.166;5.004;2023-09-18T02:03:36;100498.13;;;19.02;90.50
71384;BME280;67558;52.166;5.004;2023-09-18T02:06:03;100503.09;;;19.00;90.62
71384;BME280;67558;52.166;5.004;2023-09-18T02:08:28;100506.59;;;19.01;90.58
71384;BME280;67558;52.166;5.004;2023-09-18T02:10:53;100518.25;;;19.01;90.50
71384;BME280;67558;52.166;5.004;2023-09-18T02:13:19;100514.72;;;19.01;90.76
71384;BME280;67558;52.166;5.004;2023-09-18T02:15:44;100511.69;;;19.02;90.80
71384;BME280;67558;52.166;5.004;2023-09-18T02:18:09;100516.31;;;19.02;90.64
71384;BME280;67558;52.166;5.004;2023-09-18T02:20:41;100517.13;;;19.02;90.68
71384;BME280;67558;52.166;5.004;2023-09-18T02:23:07;100508.97;;;19.02;90.69
71384;BME280;67558;52.166;5.004;2023-09-18T02:25:32;100507.53;;;19.05;90.92
71384;BME280;67558;52.166;5.004;2023-09-18T02:27:58;100493.31;;;19.08;90.89
71384;BME280;67558;52.166;5.004;2023-09-18T02:30:23;100491.09;;;19.10;90.84
71384;BME280;67558;52.166;5.004;2023-09-18T02:32:48;100489.28;;;19.14;90.81
71384;BME280;67558;52.166;5.004;2023-09-18T02:35:14;100489.09;;;19.19;90.70
71384;BME280;67558;52.166;5.004;2023-09-18T02:37:39;100487.63;;;19.22;90.52
71384;BME280;67558;52.166;5.004;2023-09-18T02:40:05;100482.34;;;19.26;90.40
71384;BME280;67558;52.166;5.004;2023-09-18T02:42:30;100478.81;;;19.25;90.32
71384;BME280;67558;52.166;5.004;2023-09-18T02:44:56;100485.53;;;19.28;90.35
71384;BME280;67558;52.166;5.004;2023-09-18T02:47:21;100469.72;;;19.30;90.21
71384;BME280;67558;52.166;5.004;2023-09-18T02:49:47;100456.81;;;19.27;90.41
71384;BME280;67558;52.166;5.004;2023-09-18T02:52:12;100448.97;;;19.46;89.37
71384;BME280;67558;52.166;5.004;2023-09-18T02:54:37;100438.41;;;19.32;90.01
71384;BME280;67558;52.166;5.004;2023-09-18T02:57:03;100425.41;;;19.26;90.48
71384;BME280;67558;52.166;5.004;2023-09-18T02:59:28;100408.97;;;19.43;89.32
71384;BME280;67558;52.166;5.004;2023-09-18T03:01:54;100407.38;;;19.75;87.35
71384;BME280;67558;52.166;5.004;2023-09-18T03:04:19;100391.19;;;19.33;89.53
71384;BME280;67558;52.166;5.004;2023-09-18T03:06:44;100393.31;;;19.28;90.13
71384;BME280;67558;52.166;5.004;2023-09-18T03:09:11;100380.41;;;19.24;90.39
71384;BME280;67558;52.166;5.004;2023-09-18T03:11:36;100373.06;;;19.25;90.40
71384;BME280;67558;52.166;5.004;2023-09-18T03:14:01;100377.25;;;19.22;90.53
71384;BME280;67558;52.166;5.004;2023-09-18T03:16:27;100387.00;;;19.23;90.54
71384;BME280;67558;52.166;5.004;2023-09-18T03:18:52;100387.00;;;19.23;90.47
71384;BME280;67558;52.166;5.004;2023-09-18T03:21:17;100382.34;;;19.24;90.54
71384;BME280;67558;52.166;5.004;2023-09-18T03:23:43;100379.31;;;19.26;90.41
71384;BME280;67558;52.166;5.004;2023-09-18T03:26:08;100357.38;;;19.64;88.04
71384;BME280;67558;52.166;5.004;2023-09-18T03:28:33;100371.41;;;19.78;87.10
71384;BME280;67558;52.166;5.004;2023-09-18T03:30:59;100373.47;;;19.81;86.79
71384;BME280;67558;52.166;5.004;2023-09-18T03:33:24;100389.84;;;19.85;86.44
71384;BME280;67558;52.166;5.004;2023-09-18T03:35:51;100382.16;;;19.87;86.34
71384;BME280;67558;52.166;5.004;2023-09-18T03:38:19;100383.75;;;19.88;85.96
71384;BME280;67558;52.166;5.004;2023-09-18T03:40:45;100399.25;;;19.88;85.94
71384;BME280;67558;52.166;5.004;2023-09-18T03:43:11;100394.16;;;19.86;86.08
71384;BME280;67558;52.166;5.004;2023-09-18T03:45:37;100385.34;;;19.89;86.11
71384;BME280;67558;52.166;5.004;2023-09-18T03:48:03;100393.47;;;19.89;85.92
71384;BME280;67558;52.166;5.004;2023-09-18T03:50:28;100394.28;;;19.90;86.13
71384;BME280;67558;52.166;5.004;2023-09-18T03:52:53;100394.72;;;19.92;85.97
71384;BME280;67558;52.166;5.004;2023-09-18T03:55:19;100389.28;;;19.92;86.10
71384;BME280;67558;52.166;5.004;2023-09-18T03:57:44;100385.13;;;19.94;86.41
71384;BME280;67558;52.166;5.004;2023-09-18T04:00:11;100382.41;;;19.94;86.26
71384;BME280;67558;52.166;5.004;2023-09-18T04:02:36;100390.19;;;19.96;86.17
71384;BME280;67558;52.166;5.004;2023-09-18T04:05:02;100394.97;;;19.99;86.27
71384;BME280;67558;52.166;5.004;2023-09-18T04:07:28;100389.53;;;19.99;86.25
71384;BME280;67558;52.166;5.004;2023-09-18T04:09:54;100393.81;;;20.00;86.64
71384;BME280;67558;52.166;5.004;2023-09-18T04:12:19;100388.84;;;20.02;86.64
71384;BME280;67558;52.166;5.004;2023-09-18T04:14:45;100300.88;;;19.91;87.80
71384;BME280;67558;52.166;5.004;2023-09-18T04:17:10;100328.56;;;19.96;86.00
71384;BME280;67558;52.166;5.004;2023-09-18T04:19:36;100323.34;;;19.91;85.44
71384;BME280;67558;52.166;5.004;2023-09-18T04:22:01;100334.44;;;19.86;85.19
71384;BME280;67558;52.166;5.004;2023-09-18T04:24:26;100349.38;;;19.80;84.52
71384;BME280;67558;52.166;5.004;2023-09-18T04:26:52;100356.47;;;19.72;84.85
71384;BME280;67558;52.166;5.004;2023-09-18T04:29:19;100348.03;;;19.28;87.41
71384;BME280;67558;52.166;5.004;2023-09-18T04:31:45;100359.97;;;19.15;88.49
71384;BME280;67558;52.166;5.004;2023-09-18T04:34:10;100356.66;;;19.09;89.29
71384;BME280;67558;52.166;5.004;2023-09-18T04:36:36;100316.66;;;19.06;89.78
71384;BME280;67558;52.166;5.004;2023-09-18T04:39:03;100324.44;;;19.08;90.54
71384;BME280;67558;52.166;5.004;2023-09-18T04:41:30;100310.56;;;19.09;90.66
71384;BME280;67558;52.166;5.004;2023-09-18T04:43:55;100306.06;;;19.13;90.94
71384;BME280;67558;52.166;5.004;2023-09-18T04:46:20;100287.38;;;19.57;88.38
71384;BME280;67558;52.166;5.004;2023-09-18T04:48:46;100280.88;;;19.71;87.33
71384;BME280;67558;52.166;5.004;2023-09-18T04:51:12;100269.53;;;19.81;87.02
71384;BME280;67558;52.166;5.004;2023-09-18T04:53:38;100273.59;;;19.87;86.57
71384;BME280;67558;52.166;5.004;2023-09-18T04:56:03;100264.88;;;19.94;86.30
71384;BME280;67558;52.166;5.004;2023-09-18T04:58:30;100257.56;;;19.94;86.06
71384;BME280;67558;52.166;5.004;2023-09-18T05:00:57;100256.84;;;19.97;86.23
71384;BME280;67558;52.166;5.004;2023-09-18T05:03:23;100261.50;;;19.97;86.04
71384;BME280;67558;52.166;5.004;2023-09-18T05:05:49;100273.84;;;19.70;87.54
71384;BME280;67558;52.166;5.004;2023-09-18T05:08:14;100263.75;;;19.46;89.18
71384;BME280;67558;52.166;5.004;2023-09-18T05:10:40;100278.66;;;19.39;89.62
71384;BME280;67558;52.166;5.004;2023-09-18T05:13:06;100286.66;;;19.36;90.17
71384;BME280;67558;52.166;5.004;2023-09-18T05:15:32;100288.94;;;19.34;90.20
71384;BME280;67558;52.166;5.004;2023-09-18T05:17:59;100298.97;;;19.33;90.27
71384;BME280;67558;52.166;5.004;2023-09-18T05:20:25;100310.19;;;19.32;90.30
71384;BME280;67558;52.166;5.004;2023-09-18T05:22:52;100309.03;;;19.33;90.50
71384;BME280;67558;52.166;5.004;2023-09-18T05:25:22;100311.75;;;19.33;90.62
71384;BME280;67558;52.166;5.004;2023-09-18T05:27:48;100306.34;;;19.33;90.44
71384;BME280;67558;52.166;5.004;2023-09-18T05:30:23;100307.56;;;19.35;90.50
71384;BME280;67558;52.166;5.004;2023-09-18T05:32:49;100313.75;;;19.81;87.57
71384;BME280;67558;52.166;5.004;2023-09-18T05:35:14;100328.00;;;19.91;86.76
71384;BME280;67558;52.166;5.004;2023-09-18T05:37:43;100327.63;;;19.55;88.73
71384;BME280;67558;52.166;5.004;2023-09-18T05:40:10;100322.19;;;19.68;88.51
71384;BME280;67558;52.166;5.004;2023-09-18T05:42:42;100336.94;;;19.91;87.02
71384;BME280;67558;52.166;5.004;2023-09-18T05:45:09;100339.44;;;19.96;86.69
71384;BME280;67558;52.166;5.004;2023-09-18T05:47:35;100334.09;;;20.00;86.34
71384;BME280;67558;52.166;5.004;2023-09-18T05:50:02;100330.72;;;20.03;86.37
71384;BME280;67558;52.166;5.004;2023-09-18T05:52:29;100324.25;;;20.08;86.00
71384;BME280;67558;52.166;5.004;2023-09-18T05:54:54;100325.38;;;20.07;86.07
71384;BME280;67558;52.166;5.004;2023-09-18T05:57:19;100323.03;;;20.05;85.93
71384;BME280;67558;52.166;5.004;2023-09-18T05:59:45;100305.94;;;20.04;86.26
71384;BME280;67558;52.166;5.004;2023-09-18T06:02:10;100316.44;;;20.06;86.41
71384;BME280;67558;52.166;5.004;2023-09-18T06:04:36;100321.09;;;20.05;86.55
71384;BME280;67558;52.166;5.004;2023-09-18T06:07:06;100322.78;;;20.10;86.52
71384;BME280;67558;52.166;5.004;2023-09-18T06:09:31;100325.63;;;20.14;86.65
71384;BME280;67558;52.166;5.004;2023-09-18T06:11:57;100330.34;;;20.17;86.30
71384;BME280;67558;52.166;5.004;2023-09-18T06:14:22;100319.53;;;19.80;89.03
71384;BME280;67558;52.166;5.004;2023-09-18T06:16:48;100325.19;;;19.75;89.82
71384;BME280;67558;52.166;5.004;2023-09-18T06:19:15;100335.78;;;20.04;88.19
71384;BME280;67558;52.166;5.004;2023-09-18T06:21:42;100339.19;;;20.14;87.92
71384;BME280;67558;52.166;5.004;2023-09-18T06:24:07;100333.63;;;20.22;87.33
71384;BME280;67558;52.166;5.004;2023-09-18T06:26:33;100336.84;;;19.88;89.54
71384;BME280;67558;52.166;5.004;2023-09-18T06:28:58;100327.66;;;19.80;90.33
71384;BME280;67558;52.166;5.004;2023-09-18T06:31:24;100333.88;;;19.80;90.69
71384;BME280;67558;52.166;5.004;2023-09-18T06:33:49;100336.59;;;19.80;90.58
71384;BME280;67558;52.166;5.004;2023-09-18T06:36:15;100328.13;;;19.82;90.58
71384;BME280;67558;52.166;5.004;2023-09-18T06:38:41;100328.25;;;19.86;90.20
71384;BME280;67558;52.166;5.004;2023-09-18T06:41:06;100320.44;;;19.84;90.67
71384;BME280;67558;52.166;5.004;2023-09-18T06:43:32;100329.16;;;19.90;90.32
71384;BME280;67558;52.166;5.004;2023-09-18T06:45:57;100316.00;;;19.92;90.45
71384;BME280;67558;52.166;5.004;2023-09-18T06:48:24;100309.78;;;19.91;90.59
71384;BME280;67558;52.166;5.004;2023-09-18T06:50:49;100311.84;;;19.94;90.32
71384;BME280;67558;52.166;5.004;2023-09-18T06:53:15;100322.00;;;19.97;90.19
71384;BME280;67558;52.166;5.004;2023-09-18T06:55:40;100328.66;;;20.00;90.43
71384;BME280;67558;52.166;5.004;2023-09-18T06:58:06;100324.47;;;20.02;90.45
71384;BME280;67558;52.166;5.004;2023-09-18T07:00:31;100331.50;;;20.03;90.42
71384;BME280;67558;52.166;5.004;2023-09-18T07:02:57;100327.66;;;20.04;90.33
71384;BME280;67558;52.166;5.004;2023-09-18T07:05:22;100338.63;;;20.08;90.69
71384;BME280;67558;52.166;5.004;2023-09-18T07:07:48;100333.19;;;20.08;90.48
71384;BME280;67558;52.166;5.004;2023-09-18T07:10:13;100332.94;;;20.13;90.41
71384;BME280;67558;52.166;5.004;2023-09-18T07:12:39;100329.56;;;20.16;90.55
71384;BME280;67558;52.166;5.004;2023-09-18T07:15:05;100320.72;;;20.19;90.51
71384;BME280;67558;52.166;5.004;2023-09-18T07:17:31;100325.13;;;20.24;90.40
71384;BME280;67558;52.166;5.004;2023-09-18T07:19:57;100327.63;;;20.29;90.61
71384;BME280;67558;52.166;5.004;2023-09-18T07:22:22;100322.19;;;20.29;90.32
71384;BME280;67558;52.166;5.004;2023-09-18T07:24:48;100319.47;;;20.29;90.52
71384;BME280;67558;52.166;5.004;2023-09-18T07:27:14;100326.03;;;20.28;90.29
71384;BME280;67558;52.166;5.004;2023-09-18T07:29:39;100312.91;;;20.30;90.37
71384;BME280;67558;52.166;5.004;2023-09-18T07:32:05;100307.13;;;20.32;90.08
71384;BME280;67558;52.166;5.004;2023-09-18T07:34:30;100300.66;;;20.36;90.25
71384;BME280;67558;52.166;5.004;2023-09-18T07:36:55;100297.03;;;20.44;90.34
71384;BME280;67558;52.166;5.004;2023-09-18T07:39:22;100305.38;;;20.52;90.07
71384;BME280;67558;52.166;5.004;2023-09-18T07:41:47;100310.13;;;20.55;90.17
71384;BME280;67558;52.166;5.004;2023-09-18T07:44:19;100321.97;;;21.03;87.49
71384;BME280;67558;52.166;5.004;2023-09-18T07:46:44;100329.72;;;21.17;86.29
71384;BME280;67558;52.166;5.004;2023-09-18T07:49:10;100328.06;;;21.28;85.71
71384;BME280;67558;52.166;5.004;2023-09-18T07:51:35;100331.31;;;21.34;85.50
71384;BME280;67558;52.166;5.004;2023-09-18T07:54:00;100325.97;;;21.37;85.47
71384;BME280;67558;52.166;5.004;2023-09-18T07:56:26;100328.09;;;21.44;85.41
71384;BME280;67558;52.166;5.004;2023-09-18T07:58:52;100341.09;;;21.51;84.66
71384;BME280;67558;52.166;5.004;2023-09-18T08:01:17;100340.41;;;21.54;84.78
71384;BME280;67558;52.166;5.004;2023-09-18T08:03:43;100345.91;;;21.57;84.22
71384;BME280;67558;52.166;5.004;2023-09-18T08:06:08;100355.69;;;21.58;84.18
71384;BME280;67558;52.166;5.004;2023-09-18T08:08:34;100367.00;;;21.60;83.88
71384;BME280;67558;52.166;5.004;2023-09-18T08:11:06;100359.28;;;21.62;84.01
71384;BME280;67558;52.166;5.004;2023-09-18T08:13:33;100350.06;;;21.67;83.42
71384;BME280;67558;52.166;5.004;2023-09-18T08:15:58;100353.66;;;21.71;83.58
71384;BME280;67558;52.166;5.004;2023-09-18T08:18:24;100359.22;;;21.75;83.34
71384;BME280;67558;52.166;5.004;2023-09-18T08:20:52;100365.06;;;21.77;83.28
71384;BME280;67558;52.166;5.004;2023-09-18T08:23:18;100356.81;;;21.89;83.74
71384;BME280;67558;52.166;5.004;2023-09-18T08:25:43;100357.06;;;22.00;83.86
71384;BME280;67558;52.166;5.004;2023-09-18T08:28:09;100354.75;;;22.18;83.21
71384;BME280;67558;52.166;5.004;2023-09-18T08:30:34;100365.88;;;22.44;83.09
71384;BME280;67558;52.166;5.004;2023-09-18T08:33:02;100372.66;;;22.70;83.38
71384;BME280;67558;52.166;5.004;2023-09-18T08:35:27;100361.41;;;22.91;82.51
71384;BME280;67558;52.166;5.004;2023-09-18T08:37:54;100365.78;;;23.15;80.99
71384;BME280;67558;52.166;5.004;2023-09-18T08:40:20;100370.03;;;23.36;79.82
71384;BME280;67558;52.166;5.004;2023-09-18T08:42:47;100366.13;;;23.56;79.10
71384;BME280;67558;52.166;5.004;2023-09-18T08:45:24;100381.94;;;23.70;78.19
71384;BME280;67558;52.166;5.004;2023-09-18T08:47:51;100374.75;;;23.81;77.14
71384;BME280;67558;52.166;5.004;2023-09-18T08:50:17;100383.13;;;23.92;76.67
71384;BME280;67558;52.166;5.004;2023-09-18T08:52:45;100376.56;;;23.97;74.88
71384;BME280;67558;52.166;5.004;2023-09-18T08:55:12;100373.34;;;23.91;74.14
71384;BME280;67558;52.166;5.004;2023-09-18T08:57:39;100376.38;;;23.86;73.51
71384;BME280;67558;52.166;5.004;2023-09-18T09:00:05;100377.09;;;23.83;73.04
71384;BME280;67558;52.166;5.004;2023-09-18T09:02:33;100370.50;;;23.84;72.17
71384;BME280;67558;52.166;5.004;2023-09-18T09:04:59;100389.66;;;23.87;71.90
71384;BME280;67558;52.166;5.004;2023-09-18T09:07:25;100390.88;;;23.90;71.27
71384;BME280;67558;52.166;5.004;2023-09-18T09:09:51;100401.44;;;23.91;71.42
71384;BME280;67558;52.166;5.004;2023-09-18T09:13:19;100401.44;;;23.91;69.96
71384;BME280;67558;52.166;5.004;2023-09-18T09:15:47;100402.94;;;23.89;69.31
71384;BME280;67558;52.166;5.004;2023-09-18T09:18:14;100413.00;;;23.81;69.71
71384;BME280;67558;52.166;5.004;2023-09-18T09:20:55;100405.50;;;23.78;69.88
71384;BME280;67558;52.166;5.004;2023-09-18T09:23:24;100410.25;;;23.81;69.42
71384;BME280;67558;52.166;5.004;2023-09-18T09:25:50;100407.75;;;23.73;68.59
71384;BME280;67558;52.166;5.004;2023-09-18T09:28:16;100416.28;;;23.71;68.36
71384;BME280;67558;52.166;5.004;2023-09-18T09:30:44;100415.75;;;23.62;68.48
71384;BME280;67558;52.166;5.004;2023-09-18T09:33:12;100405.03;;;23.53;68.25
71384;BME280;67558;52.166;5.004;2023-09-18T09:35:38;100426.44;;;23.51;68.40
71384;BME280;67558;52.166;5.004;2023-09-18T09:38:09;100428.28;;;23.43;67.93
71384;BME280;67558;52.166;5.004;2023-09-18T09:40:38;100437.41;;;23.31;67.93
71384;BME280;67558;52.166;5.004;2023-09-18T09:43:08;100426.28;;;23.21;67.90
71384;BME280;67558;52.166;5.004;2023-09-18T09:45:33;100429.38;;;23.19;68.30
71384;BME280;67558;52.166;5.004;2023-09-18T09:48:01;100442.22;;;23.19;68.11
71384;BME280;67558;52.166;5.004;2023-09-18T09:50:27;100450.78;;;23.17;67.96
71384;BME280;67558;52.166;5.004;2023-09-18T09:52:54;100454.59;;;23.13;68.15
71384;BME280;67558;52.166;5.004;2023-09-18T09:55:33;100450.91;;;23.05;67.96
71384;BME280;67558;52.166;5.004;2023-09-18T09:58:05;100448.44;;;23.00;68.33
71384;BME280;67558;52.166;5.004;2023-09-18T10:00:33;100453.47;;;22.98;68.48
71384;BME280;67558;52.166;5.004;2023-09-18T10:03:06;100450.38;;;22.99;68.80
71384;BME280;67558;52.166;5.004;2023-09-18T10:05:36;100445.03;;;23.03;68.98
71384;BME280;67558;52.166;5.004;2023-09-18T10:08:07;100443.88;;;23.04;69.22
71384;BME280;67558;52.166;5.004;2023-09-18T10:10:36;100451.47;;;23.14;68.88
71384;BME280;67558;52.166;5.004;2023-09-18T10:13:09;100443.88;;;23.23;68.61
71384;BME280;67558;52.166;5.004;2023-09-18T10:15:36;100441.72;;;23.33;68.53
71384;BME280;67558;52.166;5.004;2023-09-18T10:18:06;100448.47;;;23.39;68.30
71384;BME280;67558;52.166;5.004;2023-09-18T10:20:39;100440.56;;;23.34;67.64
71384;BME280;67558;52.166;5.004;2023-09-18T10:23:18;100447.59;;;23.35;67.48
71384;BME280;67558;52.166;5.004;2023-09-18T10:25:50;100435.03;;;23.30;67.52
71384;BME280;67558;52.166;5.004;2023-09-18T10:28:20;100443.22;;;23.30;67.74
71384;BME280;67558;52.166;5.004;2023-09-18T10:30:47;100447.53;;;23.31;67.69
71384;BME280;67558;52.166;5.004;2023-09-18T10:33:13;100439.06;;;23.36;67.53
71384;BME280;67558;52.166;5.004;2023-09-18T10:35:39;100434.88;;;23.42;67.39
71384;BME280;67558;52.166;5.004;2023-09-18T10:38:06;100439.75;;;23.52;67.19
71384;BME280;67558;52.166;5.004;2023-09-18T10:40:32;100443.84;;;23.62;66.76
71384;BME280;67558;52.166;5.004;2023-09-18T10:43:02;100439.16;;;23.63;65.31
71384;BME280;67558;52.166;5.004;2023-09-18T10:45:29;100443.44;;;23.64;65.74
71384;BME280;67558;52.166;5.004;2023-09-18T10:47:56;100436.91;;;23.68;65.49
71384;BME280;67558;52.166;5.004;2023-09-18T10:50:23;100438.50;;;23.69;65.53
71384;BME280;67558;52.166;5.004;2023-09-18T10:52:50;100438.41;;;23.66;65.06
71384;BME280;67558;52.166;5.004;2023-09-18T10:55:15;100429.09;;;23.67;65.29
71384;BME280;67558;52.166;5.004;2023-09-18T11:00:17;100435.75;;;23.69;65.01
71384;BME280;67558;52.166;5.004;2023-09-18T11:02:49;100433.97;;;23.77;65.03
71384;BME280;67558;52.166;5.004;2023-09-18T11:05:14;100440.09;;;23.94;65.15
71384;BME280;67558;52.166;5.004;2023-09-18T11:10:58;100443.69;;;23.98;63.43
